createdAt,value
2018-04-06T00:01:52.667Z,1.30
2018-04-06T00:04:20.103Z,1.20
2018-04-06T00:06:47.552Z,1.10
2018-04-06T00:09:14.996Z,1.10
2018-04-06T00:11:42.463Z,1.10
2018-04-06T00:14:09.957Z,1.00
2018-04-06T00:16:37.395Z,1.00
2018-04-06T00:19:04.834Z,1.00
2018-04-06T00:21:32.280Z,1.00
2018-04-06T00:23:59.711Z,1.00
2018-04-06T00:26:27.157Z,1.00
2018-04-06T00:28:54.579Z,1.00
2018-04-06T00:31:22.028Z,1.00
2018-04-06T00:33:49.468Z,1.00
2018-04-06T00:36:16.902Z,1.00
2018-04-06T00:38:44.339Z,1.10
2018-04-06T00:41:11.783Z,1.10
2018-04-06T00:43:39.247Z,1.10
2018-04-06T00:46:06.708Z,1.10
2018-04-06T00:48:34.154Z,1.20
2018-04-06T00:51:02.361Z,1.10
2018-04-06T00:53:41.623Z,1.10
2018-04-06T00:56:09.064Z,1.10
2018-04-06T00:58:36.499Z,1.20
2018-04-06T01:01:03.949Z,1.10
2018-04-06T01:03:31.376Z,1.10
2018-04-06T01:05:58.815Z,1.10
2018-04-06T01:08:26.252Z,1.10
2018-04-06T01:10:53.692Z,1.10
2018-04-06T01:13:21.124Z,1.10
2018-04-06T01:15:48.569Z,1.10
2018-04-06T01:18:16.004Z,1.10
2018-04-06T01:20:43.446Z,1.00
2018-04-06T01:23:10.875Z,1.00
2018-04-06T01:25:39.085Z,1.00
2018-04-06T01:28:06.511Z,1.00
2018-04-06T01:30:34.718Z,0.90
2018-04-06T01:33:02.166Z,0.90
2018-04-06T01:35:30.376Z,0.80
2018-04-06T01:37:57.811Z,0.80
2018-04-06T01:40:26.019Z,0.90
2018-04-06T01:42:53.452Z,0.80
2018-04-06T01:45:20.899Z,0.90
2018-04-06T01:47:49.091Z,0.90
2018-04-06T01:50:16.524Z,1.00
2018-04-06T01:52:43.972Z,0.90
2018-04-06T01:55:11.403Z,1.00
2018-04-06T01:57:38.872Z,0.90
2018-04-06T02:00:06.312Z,0.90
2018-04-06T02:02:33.776Z,0.90
2018-04-06T02:05:01.192Z,0.90
2018-04-06T02:07:28.631Z,0.90
2018-04-06T02:09:56.068Z,0.80
2018-04-06T02:12:23.513Z,0.80
2018-04-06T02:14:50.941Z,0.70
2018-04-06T02:17:19.148Z,0.70
2018-04-06T02:19:46.605Z,0.70
2018-04-06T02:22:14.798Z,0.70
2018-04-06T02:24:42.304Z,0.70
2018-04-06T02:27:10.430Z,0.70
2018-04-06T02:29:37.873Z,0.60
2018-04-06T02:32:06.072Z,0.60
2018-04-06T02:34:33.508Z,0.60
2018-04-06T02:37:01.746Z,0.60
2018-04-06T02:39:29.159Z,0.60
2018-04-06T02:41:56.599Z,0.60
2018-04-06T02:44:24.811Z,0.50
2018-04-06T02:46:52.253Z,0.50
2018-04-06T02:49:20.451Z,0.60
2018-04-06T02:51:47.891Z,0.50
2018-04-06T02:54:16.089Z,0.60
2018-04-06T02:56:43.528Z,0.60
2018-04-06T02:59:11.751Z,0.60
2018-04-06T03:01:39.193Z,0.50
2018-04-06T03:04:06.630Z,0.50
2018-04-06T03:06:34.833Z,0.50
2018-04-06T03:09:02.261Z,0.50
2018-04-06T03:11:30.467Z,0.40
2018-04-06T03:13:57.908Z,0.40
2018-04-06T03:16:26.122Z,0.50
2018-04-06T03:18:53.570Z,0.50
2018-04-06T03:21:21.028Z,0.50
2018-04-06T03:23:48.447Z,0.50
2018-04-06T03:26:15.907Z,0.50
2018-04-06T03:28:43.341Z,0.60
2018-04-06T03:31:10.764Z,0.60
2018-04-06T03:33:38.211Z,0.60
2018-04-06T03:36:06.409Z,0.50
2018-04-06T03:38:33.851Z,0.50
2018-04-06T03:41:02.052Z,0.50
2018-04-06T03:43:29.499Z,0.50
2018-04-06T03:45:56.972Z,0.50
2018-04-06T03:48:24.400Z,0.40
2018-04-06T03:50:52.600Z,0.50
2018-04-06T03:53:20.044Z,0.50
2018-04-06T03:55:48.235Z,0.50
2018-04-06T03:58:15.676Z,0.50
2018-04-06T04:00:43.876Z,0.60
2018-04-06T04:03:11.663Z,0.60
2018-04-06T04:05:39.092Z,0.60
2018-04-06T04:08:07.299Z,0.60
2018-04-06T04:10:34.757Z,0.60
2018-04-06T04:13:02.205Z,0.60
2018-04-06T04:15:30.403Z,0.60
2018-04-06T04:17:57.841Z,0.60
2018-04-06T04:20:26.052Z,0.50
2018-04-06T04:22:53.495Z,0.40
2018-04-06T04:25:20.938Z,0.50
2018-04-06T04:27:48.383Z,0.50
2018-04-06T04:30:16.596Z,0.40
2018-04-06T04:32:44.040Z,0.40
2018-04-06T04:35:12.245Z,0.30
2018-04-06T04:37:39.699Z,0.30
2018-04-06T04:40:07.119Z,0.30
2018-04-06T04:42:34.559Z,0.30
2018-04-06T04:45:01.984Z,0.40
2018-04-06T04:47:29.434Z,0.40
2018-04-06T04:49:56.872Z,0.40
2018-04-06T04:52:25.087Z,0.40
2018-04-06T04:54:52.520Z,0.40
2018-04-06T04:57:21.537Z,0.40
2018-04-06T04:59:48.963Z,0.40
2018-04-06T05:02:16.415Z,0.30
2018-04-06T05:04:43.893Z,0.30
2018-04-06T05:07:12.104Z,0.40
2018-04-06T05:09:39.548Z,0.40
2018-04-06T05:12:06.980Z,0.40
2018-04-06T05:14:34.420Z,0.40
2018-04-06T05:17:01.860Z,0.50
2018-04-06T05:19:29.291Z,0.50
2018-04-06T05:21:56.720Z,0.60
2018-04-06T05:24:24.173Z,0.50
2018-04-06T05:26:51.599Z,0.60
2018-04-06T05:29:19.043Z,0.70
2018-04-06T05:31:46.472Z,0.80
2018-04-06T05:34:13.935Z,0.80
2018-04-06T05:36:42.254Z,0.90
2018-04-06T05:39:09.683Z,0.80
2018-04-06T05:41:37.883Z,1.00
2018-04-06T05:44:05.323Z,1.00
2018-04-06T05:46:34.320Z,1.30
2018-04-06T05:49:02.528Z,1.60
2018-04-06T05:51:29.975Z,1.50
2018-04-06T05:53:57.416Z,2.60
2018-04-06T05:56:25.620Z,5.00
2018-04-06T05:58:53.088Z,5.00
2018-04-06T06:01:20.550Z,5.90
2018-04-06T06:03:47.973Z,6.90
2018-04-06T06:06:15.423Z,6.90
2018-04-06T06:08:42.865Z,6.10
2018-04-06T06:11:10.382Z,5.80
2018-04-06T06:13:38.585Z,7.90
2018-04-06T06:16:06.019Z,7.90
2018-04-06T06:18:34.228Z,8.70
2018-04-06T06:21:01.716Z,8.60
2018-04-06T06:23:29.951Z,6.90
2018-04-06T06:25:57.396Z,6.90
2018-04-06T06:28:25.608Z,6.00
2018-04-06T06:30:53.040Z,5.90
2018-04-06T06:33:21.243Z,7.90
2018-04-06T06:35:48.675Z,7.90
2018-04-06T06:38:16.879Z,8.10
2018-04-06T06:40:44.312Z,8.10
2018-04-06T06:43:13.083Z,9.70
2018-04-06T06:45:40.516Z,9.70
2018-04-06T06:48:07.975Z,9.50
2018-04-06T06:50:36.284Z,8.70
2018-04-06T06:53:03.729Z,8.60
2018-04-06T06:55:31.936Z,8.10
2018-04-06T06:58:00.173Z,7.70
2018-04-06T07:00:27.605Z,7.70
2018-04-06T07:02:55.040Z,7.60
2018-04-06T07:05:23.271Z,7.80
2018-04-06T07:07:50.709Z,7.80
2018-04-06T07:10:18.151Z,8.30
2018-04-06T07:12:46.367Z,8.80
2018-04-06T07:15:13.800Z,8.80
2018-04-06T07:17:41.374Z,9.00
2018-04-06T07:20:08.811Z,9.40
2018-04-06T07:22:37.016Z,10.20
2018-04-06T07:25:04.468Z,10.20
2018-04-06T07:27:31.922Z,11.60
2018-04-06T07:29:59.380Z,12.10
2018-04-06T07:32:26.831Z,11.90
2018-04-06T07:34:55.032Z,13.90
2018-04-06T07:37:22.480Z,13.80
2018-04-06T07:39:49.938Z,14.90
2018-04-06T07:42:18.132Z,19.00
2018-04-06T07:44:45.600Z,19.00
2018-04-06T07:47:13.092Z,22.30
2018-04-06T07:49:40.535Z,25.30
2018-04-06T07:52:07.987Z,27.00
2018-04-06T07:54:35.419Z,27.90
2018-04-06T07:57:03.702Z,31.50
2018-04-06T07:59:31.187Z,31.40
2018-04-06T08:01:58.619Z,32.20
2018-04-06T08:04:26.838Z,35.40
2018-04-06T08:06:54.271Z,35.20
2018-04-06T08:09:21.716Z,36.40
2018-04-06T08:11:49.928Z,39.30
2018-04-06T08:14:17.368Z,39.20
2018-04-06T08:16:44.814Z,39.40
2018-04-06T08:19:13.029Z,39.30
2018-04-06T08:21:40.525Z,39.30
2018-04-06T08:24:07.979Z,35.20
2018-04-06T08:26:35.416Z,30.60
2018-04-06T08:29:02.856Z,26.00
2018-04-06T08:31:30.295Z,22.80
2018-04-06T08:33:58.502Z,24.70
2018-04-06T08:36:25.956Z,24.70
2018-04-06T08:38:53.391Z,27.70
2018-04-06T08:41:20.835Z,29.40
2018-04-06T08:43:48.284Z,29.80
2018-04-06T08:46:15.724Z,30.60
2018-04-06T08:48:43.233Z,32.50
2018-04-06T08:51:10.744Z,32.30
2018-04-06T08:53:38.180Z,34.00
2018-04-06T08:56:06.388Z,33.80
2018-04-06T08:58:33.828Z,33.80
2018-04-06T09:01:01.288Z,33.40
2018-04-06T09:03:29.479Z,29.40
2018-04-06T09:05:56.940Z,29.30
2018-04-06T09:08:24.377Z,26.00
2018-04-06T09:10:52.597Z,23.70
2018-04-06T09:13:20.075Z,23.70
2018-04-06T09:15:47.525Z,27.60
2018-04-06T09:18:15.073Z,30.10
2018-04-06T09:20:42.516Z,31.00
2018-04-06T09:23:09.992Z,31.80
2018-04-06T09:25:37.424Z,32.90
2018-04-06T09:28:05.629Z,33.90
2018-04-06T09:30:33.077Z,33.90
2018-04-06T09:33:00.517Z,34.90
2018-04-06T09:35:28.729Z,34.50
2018-04-06T09:37:56.160Z,34.40
2018-04-06T09:40:24.384Z,36.30
2018-04-06T09:42:51.838Z,36.20
2018-04-06T09:45:19.337Z,36.10
2018-04-06T09:47:46.767Z,36.70
2018-04-06T09:50:14.219Z,36.00
2018-04-06T09:52:41.659Z,35.90
2018-04-06T09:55:09.867Z,29.80
2018-04-06T09:57:37.300Z,29.70
2018-04-06T10:00:04.811Z,26.40
2018-04-06T10:02:37.838Z,24.30
2018-04-06T10:05:06.115Z,26.00
2018-04-06T10:07:35.132Z,26.20
2018-04-06T10:10:02.604Z,26.20
2018-04-06T10:12:30.033Z,25.30
2018-04-06T10:14:58.231Z,24.60
2018-04-06T10:17:25.679Z,24.60
2018-04-06T10:19:53.885Z,23.90
2018-04-06T10:22:21.328Z,23.90
2018-04-06T10:24:49.556Z,24.20
2018-04-06T10:27:16.983Z,24.20
2018-04-06T10:29:44.431Z,24.50
2018-04-06T10:32:11.876Z,25.00
2018-04-06T10:34:40.101Z,25.00
2018-04-06T10:37:07.578Z,25.00
2018-04-06T10:39:35.011Z,25.20
2018-04-06T10:42:02.460Z,25.00
2018-04-06T10:44:29.900Z,25.10
2018-04-06T10:46:58.153Z,24.80
2018-04-06T10:49:25.587Z,24.80
2018-04-06T10:51:53.023Z,24.90
2018-04-06T10:54:20.533Z,24.10
2018-04-06T10:56:47.983Z,23.80
2018-04-06T10:59:15.419Z,23.80
2018-04-06T11:01:42.878Z,23.80
2018-04-06T11:04:10.303Z,23.80
2018-04-06T11:06:38.515Z,23.90
2018-04-06T11:09:06.021Z,23.80
2018-04-06T11:11:33.488Z,23.50
2018-04-06T11:14:00.934Z,23.90
2018-04-06T11:16:28.385Z,23.50
2018-04-06T11:18:55.834Z,23.80
2018-04-06T11:21:23.308Z,24.40
2018-04-06T11:23:50.758Z,25.20
2018-04-06T11:26:18.200Z,25.60
2018-04-06T11:28:45.627Z,25.40
2018-04-06T11:31:13.131Z,25.80
2018-04-06T11:33:40.556Z,26.10
2018-04-06T11:36:08.768Z,26.90
2018-04-06T11:38:36.784Z,26.80
2018-04-06T11:41:04.240Z,27.70
2018-04-06T11:43:31.677Z,28.30
2018-04-06T11:45:59.124Z,28.60
2018-04-06T11:48:26.591Z,29.10
2018-04-06T11:50:54.028Z,28.90
2018-04-06T11:53:22.274Z,28.70
2018-04-06T11:55:49.697Z,28.70
2018-04-06T11:58:17.135Z,28.70
2018-04-06T12:00:44.571Z,28.80
2018-04-06T12:03:12.020Z,27.10
2018-04-06T12:05:39.472Z,26.30
2018-04-06T12:08:07.405Z,25.90
2018-04-06T12:10:34.832Z,26.90
2018-04-06T12:13:03.120Z,27.50
2018-04-06T12:15:30.518Z,27.50
2018-04-06T12:17:57.956Z,28.20
2018-04-06T12:20:25.382Z,28.50
2018-04-06T12:22:52.819Z,28.30
2018-04-06T12:25:20.289Z,29.00
2018-04-06T12:27:47.749Z,28.60
2018-04-06T12:30:15.194Z,29.70
2018-04-06T12:32:42.644Z,28.90
2018-04-06T12:35:10.143Z,28.10
2018-04-06T12:37:37.649Z,28.10
2018-04-06T12:40:05.842Z,27.90
2018-04-06T12:42:33.276Z,27.90
2018-04-06T12:45:01.492Z,28.80
2018-04-06T12:47:28.940Z,28.80
2018-04-06T12:49:56.372Z,29.40
2018-04-06T12:52:24.575Z,28.70
2018-04-06T12:54:52.012Z,28.70
2018-04-06T12:57:20.228Z,27.30
2018-04-06T12:59:47.663Z,27.20
2018-04-06T13:02:15.167Z,26.00
2018-04-06T13:04:42.635Z,25.20
2018-04-06T13:07:10.196Z,25.00
2018-04-06T13:09:37.640Z,24.40
2018-04-06T13:12:05.121Z,24.20
2018-04-06T13:14:32.568Z,23.70
2018-04-06T13:17:00.040Z,23.90
2018-04-06T13:19:27.515Z,24.30
2018-04-06T13:21:54.959Z,24.60
2018-04-06T13:24:22.405Z,25.00
2018-04-06T13:26:50.059Z,25.00
2018-04-06T13:29:17.560Z,25.60
2018-04-06T13:31:44.979Z,24.40
2018-04-06T13:34:12.477Z,23.40
2018-04-06T13:36:39.912Z,22.20
2018-04-06T13:39:07.364Z,20.70
2018-04-06T13:41:34.807Z,19.60
2018-04-06T13:44:03.032Z,19.60
2018-04-06T13:46:30.475Z,19.50
2018-04-06T13:48:57.932Z,19.70
2018-04-06T13:51:25.389Z,20.00
2018-04-06T13:53:52.828Z,20.40
2018-04-06T14:02:04.687Z,21.00
2018-04-06T14:04:32.126Z,21.00
2018-04-06T14:06:59.561Z,21.40
2018-04-06T14:09:27.770Z,22.00
2018-04-06T14:11:55.208Z,22.00
2018-04-06T14:14:22.661Z,21.90
2018-04-06T14:16:50.888Z,20.00
2018-04-06T14:19:18.352Z,19.90
2018-04-06T14:21:45.891Z,19.70
2018-04-06T14:24:13.319Z,19.60
2018-04-06T14:26:41.631Z,19.20
2018-04-06T14:29:09.083Z,19.20
2018-04-06T14:31:37.279Z,19.20
2018-04-06T14:34:04.755Z,19.10
2018-04-06T14:36:32.195Z,19.30
2018-04-06T14:38:59.691Z,19.60
2018-04-06T14:41:27.170Z,19.50
2018-04-06T14:43:54.881Z,19.50
2018-04-06T14:46:22.312Z,19.20
2018-04-06T14:48:50.534Z,18.80
2018-04-06T14:51:17.957Z,18.80
2018-04-06T14:53:46.191Z,18.60
2018-04-06T14:56:13.640Z,18.50
2018-04-06T14:58:41.084Z,18.80
2018-04-06T15:01:08.575Z,19.20
2018-04-06T15:03:36.063Z,19.60
2018-04-06T15:06:03.491Z,19.10
2018-04-06T15:08:30.953Z,19.00
2018-04-06T15:10:58.392Z,18.80
2018-04-06T15:13:26.602Z,18.60
2018-04-06T15:15:54.155Z,18.60
2018-04-06T15:18:21.612Z,18.10
2018-04-06T15:20:49.053Z,18.00
2018-04-06T15:23:16.488Z,17.80
2018-04-06T15:25:44.683Z,17.70
2018-04-06T15:28:12.515Z,17.50
2018-04-06T15:30:39.951Z,18.10
2018-04-06T15:33:07.501Z,19.00
2018-04-06T15:35:34.927Z,20.10
2018-04-06T15:38:03.160Z,21.40
2018-04-06T15:40:30.618Z,21.40
2018-04-06T15:42:59.367Z,22.20
2018-04-06T15:45:27.564Z,20.80
2018-04-06T15:47:54.999Z,20.70
2018-04-06T15:50:23.229Z,18.80
2018-04-06T15:52:50.664Z,18.80
2018-04-06T15:55:18.114Z,18.60
2018-04-06T15:57:45.544Z,18.40
2018-04-06T16:00:13.763Z,18.00
2018-04-06T16:02:41.200Z,18.00
2018-04-06T16:05:09.428Z,17.90
2018-04-06T16:07:36.874Z,17.80
2018-04-06T16:10:04.357Z,17.80
2018-04-06T16:12:31.808Z,17.60
2018-04-06T16:14:59.249Z,17.50
2018-04-06T16:17:26.679Z,17.40
2018-04-06T16:19:54.913Z,17.40
2018-04-06T16:22:22.345Z,17.40
2018-04-06T16:24:49.832Z,17.30
2018-04-06T16:27:17.266Z,17.30
2018-04-06T16:29:44.717Z,17.20
2018-04-06T16:32:13.843Z,17.10
2018-04-06T16:34:41.311Z,17.00
2018-04-06T16:37:08.775Z,17.10
2018-04-06T16:39:36.240Z,17.00
2018-04-06T16:42:03.747Z,17.00
2018-04-06T16:44:31.961Z,16.80
2018-04-06T16:46:59.448Z,16.80
2018-04-06T16:49:26.898Z,16.70
2018-04-06T16:51:54.336Z,16.60
2018-04-06T16:54:21.877Z,16.60
2018-04-06T16:56:49.344Z,16.60
2018-04-06T16:59:18.174Z,16.60
2018-04-06T17:01:45.592Z,16.60
2018-04-06T17:04:13.804Z,16.50
2018-04-06T17:06:41.274Z,16.50
2018-04-06T17:09:08.757Z,16.40
2018-04-06T17:11:36.277Z,16.40
2018-04-06T17:14:03.728Z,16.30
2018-04-06T17:16:31.952Z,16.30
2018-04-06T17:18:59.400Z,16.20
2018-04-06T17:21:26.843Z,16.30
2018-04-06T17:23:54.438Z,16.40
2018-04-06T17:26:21.882Z,16.30
2018-04-06T17:28:49.311Z,16.10
2018-04-06T17:31:16.820Z,16.10
2018-04-06T17:33:44.267Z,16.10
2018-04-06T17:36:11.716Z,15.90
2018-04-06T17:38:39.187Z,15.90
2018-04-06T17:41:06.729Z,15.80
2018-04-06T17:43:34.242Z,15.70
2018-04-06T17:46:01.679Z,15.70
2018-04-06T17:48:29.124Z,15.70
2018-04-06T17:50:56.567Z,15.70
2018-04-06T17:53:24.013Z,15.60
2018-04-06T17:55:52.224Z,15.60
2018-04-06T17:58:19.664Z,15.50
2018-04-06T18:00:47.108Z,15.60
2018-04-06T18:03:15.330Z,15.30
2018-04-06T18:05:42.772Z,15.30
2018-04-06T18:08:10.464Z,15.30
2018-04-06T18:10:37.908Z,15.30
2018-04-06T18:13:05.344Z,15.30
2018-04-06T18:15:33.553Z,15.10
2018-04-06T18:18:01.017Z,15.00
2018-04-06T18:20:28.473Z,15.10
2018-04-06T18:22:55.907Z,15.00
2018-04-06T18:25:24.112Z,14.90
2018-04-06T18:27:51.589Z,14.80
2018-04-06T18:30:19.151Z,14.80
2018-04-06T18:32:46.626Z,14.70
2018-04-06T18:35:14.074Z,14.60
2018-04-06T18:37:41.539Z,14.50
2018-04-06T18:40:09.014Z,14.60
2018-04-06T18:42:36.461Z,14.60
2018-04-06T18:45:03.903Z,14.70
2018-04-06T18:47:31.337Z,14.60
2018-04-06T18:49:59.604Z,14.50
2018-04-06T18:52:27.032Z,14.40
2018-04-06T18:54:54.501Z,14.30
2018-04-06T18:57:21.988Z,14.30
2018-04-06T18:59:49.415Z,14.30
2018-04-06T19:02:16.864Z,14.30
2018-04-06T19:04:44.672Z,14.20
2018-04-06T19:07:12.232Z,14.10
2018-04-06T19:09:40.720Z,14.00
2018-04-06T19:12:08.930Z,13.90
2018-04-06T19:14:36.367Z,13.90
2018-04-06T19:17:03.872Z,13.90
2018-04-06T19:19:31.291Z,13.90
2018-04-06T19:21:58.793Z,13.90
2018-04-06T19:24:26.231Z,13.80
2018-04-06T19:26:54.431Z,13.80
2018-04-06T19:29:21.866Z,13.80
2018-04-06T19:31:50.078Z,13.80
2018-04-06T19:34:17.504Z,13.70
2018-04-06T19:36:45.733Z,13.80
2018-04-06T19:39:13.890Z,13.80
2018-04-06T19:41:41.355Z,13.80
2018-04-06T19:44:08.788Z,13.70
2018-04-06T19:46:36.998Z,13.50
2018-04-06T19:49:04.439Z,13.60
2018-04-06T19:51:31.891Z,13.50
2018-04-06T19:54:00.099Z,13.50
2018-04-06T19:56:27.552Z,13.50
2018-04-06T19:58:54.983Z,13.50
2018-04-06T20:01:22.459Z,13.40
2018-04-06T20:03:50.643Z,13.30
2018-04-06T20:06:18.083Z,13.20
2018-04-06T20:08:46.283Z,13.30
2018-04-06T20:11:13.728Z,13.30
2018-04-06T20:13:41.935Z,13.30
2018-04-06T20:16:09.371Z,13.30
2018-04-06T20:18:37.580Z,13.30
2018-04-06T20:21:05.033Z,13.20
2018-04-06T20:23:32.463Z,13.20
2018-04-06T20:26:00.677Z,13.20
2018-04-06T20:28:28.160Z,13.20
2018-04-06T20:30:55.584Z,13.20
2018-04-06T20:33:23.027Z,13.20
2018-04-06T20:35:51.230Z,13.00
2018-04-06T20:38:18.663Z,13.00
2018-04-06T20:40:46.976Z,12.90
2018-04-06T20:43:14.408Z,12.90
2018-04-06T20:45:42.620Z,12.90
2018-04-06T20:48:10.064Z,12.80
2018-04-06T20:50:37.496Z,12.80
2018-04-06T20:53:04.945Z,12.80
2018-04-06T20:55:32.388Z,12.70
2018-04-06T20:57:59.833Z,12.80
2018-04-06T21:00:27.281Z,12.70
2018-04-06T21:02:54.727Z,12.70
2018-04-06T21:05:22.155Z,12.70
2018-04-06T21:07:50.410Z,12.60
2018-04-06T21:10:17.849Z,12.60
2018-04-06T21:12:45.339Z,12.60
2018-04-06T21:15:12.807Z,12.60
2018-04-06T21:17:40.258Z,12.60
2018-04-06T21:20:07.834Z,12.40
2018-04-06T21:22:35.292Z,12.40
2018-04-06T21:25:02.774Z,12.50
2018-04-06T21:27:30.227Z,12.50
2018-04-06T21:29:57.678Z,12.50
2018-04-06T21:32:25.123Z,12.50
2018-04-06T21:34:52.558Z,12.50
2018-04-06T21:37:20.001Z,12.50
2018-04-06T21:39:48.200Z,12.40
2018-04-06T21:42:15.657Z,12.40
2018-04-06T21:44:43.102Z,12.30
2018-04-06T21:47:11.316Z,12.20
2018-04-06T21:49:38.744Z,12.20
2018-04-06T21:52:06.252Z,12.20
2018-04-06T21:54:33.732Z,12.10
2018-04-06T21:57:02.065Z,12.10
2018-04-06T21:59:29.512Z,12.10
2018-04-06T22:01:57.764Z,12.00
2018-04-06T22:04:25.337Z,12.00
2018-04-06T22:06:52.779Z,12.20
2018-04-06T22:09:20.220Z,12.00
2018-04-06T22:11:47.680Z,12.00
2018-04-06T22:14:16.032Z,12.10
2018-04-06T22:16:43.487Z,12.00
2018-04-06T22:19:11.000Z,11.90
2018-04-06T22:21:39.230Z,11.90
2018-04-06T22:24:07.468Z,11.80
2018-04-06T22:26:34.945Z,11.80
2018-04-06T22:29:02.408Z,11.70
2018-04-06T22:31:29.870Z,11.70
2018-04-06T22:33:58.147Z,11.60
2018-04-06T22:36:26.397Z,11.80
2018-04-06T22:38:53.848Z,11.80
2018-04-06T22:41:21.300Z,11.70
2018-04-06T22:43:48.751Z,11.70
2018-04-06T22:46:16.217Z,11.80
2018-04-06T22:48:43.656Z,11.70
2018-04-06T22:51:11.172Z,11.80
2018-04-06T22:53:38.727Z,11.70
2018-04-06T22:56:06.161Z,11.60
2018-04-06T22:58:33.649Z,11.50
2018-04-06T23:01:01.087Z,11.50
2018-04-06T23:03:28.548Z,11.50
2018-04-06T23:05:55.986Z,11.30
2018-04-06T23:08:24.217Z,10.90
2018-04-06T23:10:51.685Z,10.90
2018-04-06T23:13:19.263Z,10.90
2018-04-06T23:15:47.477Z,10.60
2018-04-06T23:18:14.992Z,10.60
2018-04-06T23:20:42.461Z,10.50
2018-04-06T23:23:09.908Z,10.50
2018-04-06T23:25:37.344Z,10.60
2018-04-06T23:28:04.796Z,10.60
2018-04-06T23:30:33.453Z,10.80
2018-04-06T23:33:01.659Z,10.80
2018-04-06T23:35:29.160Z,10.80
2018-04-06T23:37:56.732Z,10.70
2018-04-06T23:40:24.251Z,10.70
2018-04-06T23:42:51.740Z,10.80
2018-04-06T23:45:20.128Z,10.60
2018-04-06T23:47:47.587Z,10.60
2018-04-06T23:50:15.068Z,10.50
2018-04-06T23:52:44.004Z,10.30
2018-04-06T23:55:11.476Z,10.30
2018-04-06T23:57:38.964Z,10.00
